Time;durP1;ratioP1;P1;durP2;ratioP2;P2;SDS_P1;SDS_P2;PMS_P1;PMS_P2;Temp;Humidity;BMP_temperature;BMP_pressure;BME280_temperature;BME280_humidity;BME280_pressure;Samples;Min_cycle;Max_cycle;Signal;HPM_P1;HPM_P2
2024/02/09 00:00:45;;;;;;;240.43;68.20;;;;;;;;;;4992296;28;20647;-48
2024/02/09 00:03:11;;;;;;;237.15;63.17;;;;;;;;;;4992895;28;20703;-47
2024/02/09 00:05:37;;;;;;;234.40;60.65;;;;;;;;;;4993031;28;20201;-49
2024/02/09 00:08:04;;;;;;;235.18;62.97;;;;;;;;;;4992877;28;20205;-48
2024/02/09 00:10:36;;;;;;;244.15;69.15;;;;;;;;;;5010964;22;20271;-45
2024/02/09 00:13:04;;;;;;;238.02;64.18;;;;;;;;;;5000433;28;20315;-45
2024/02/09 00:15:31;;;;;;;236.25;63.00;;;;;;;;;;5003138;28;20203;-45
2024/02/09 00:17:57;;;;;;;238.45;64.97;;;;;;;;;;5001742;28;20227;-45
2024/02/09 00:20:22;;;;;;;238.48;64.38;;;;;;;;;;5001280;28;20202;-45
2024/02/09 00:22:49;;;;;;;234.33;62.60;;;;;;;;;;4999646;28;20181;-46
2024/02/09 00:25:15;;;;;;;235.27;62.15;;;;;;;;;;5003641;28;20977;-45
2024/02/09 00:27:42;;;;;;;237.57;62.95;;;;;;;;;;4997370;28;20647;-46
2024/02/09 00:30:10;;;;;;;240.07;65.60;;;;;;;;;;4992170;28;20656;-45
2024/02/09 00:32:36;;;;;;;237.48;63.25;;;;;;;;;;4996506;28;20165;-46
2024/02/09 00:35:03;;;;;;;238.77;65.10;;;;;;;;;;4996381;28;20192;-46
2024/02/09 00:37:29;;;;;;;237.45;64.82;;;;;;;;;;5003562;28;20172;-45
2024/02/09 00:39:55;;;;;;;236.43;61.93;;;;;;;;;;5000328;28;20220;-46
2024/02/09 00:42:21;;;;;;;237.00;65.53;;;;;;;;;;4999651;28;20462;-46
2024/02/09 00:44:48;;;;;;;239.00;64.80;;;;;;;;;;4994752;28;20191;-46
2024/02/09 00:47:14;;;;;;;239.13;64.03;;;;;;;;;;4988965;28;20196;-45
2024/02/09 00:49:43;;;;;;;237.55;64.30;;;;;;;;;;5003175;28;20199;-46
2024/02/09 00:52:10;;;;;;;238.65;63.97;;;;;;;;;;4998028;28;20193;-46
2024/02/09 00:54:36;;;;;;;235.70;61.72;;;;;;;;;;5003646;28;20227;-46
2024/02/09 00:57:05;;;;;;;237.10;62.00;;;;;;;;;;4996633;28;20643;-46
2024/02/09 00:59:31;;;;;;;233.52;60.72;;;;;;;;;;4996986;28;20432;-45
2024/02/09 01:01:57;;;;;;;235.63;62.40;;;;;;;;;;4991838;28;20215;-45
2024/02/09 01:04:27;;;;;;;238.40;67.13;;;;;;;;;;5000456;28;20941;-46
2024/02/09 01:06:55;;;;;;;237.40;62.97;;;;;;;;;;5001753;28;20174;-46
2024/02/09 01:09:21;;;;;;;238.13;63.90;;;;;;;;;;4995375;28;20256;-46
2024/02/09 01:11:48;;;;;;;239.00;63.30;;;;;;;;;;4996693;28;20675;-45
2024/02/09 02:47:00;;;;;;;237.80;63.37;;;;;;;;;;5000492;28;20436;-45
2024/02/09 03:05:53;;;;;;;235.98;61.58;;;;;;;;;;5003405;28;20199;-46
2024/02/09 03:08:19;;;;;;;235.27;61.30;;;;;;;;;;4996915;28;20668;-45
2024/02/09 03:13:49;;;;;;;236.15;61.72;;;;;;;;;;4996472;28;20388;-45
2024/02/09 03:16:17;;;;;;;238.73;64.18;;;;;;;;;;5002988;28;20180;-45
2024/02/09 03:18:44;;;;;;;234.45;60.05;;;;;;;;;;4996623;28;20226;-45
2024/02/09 03:21:10;;;;;;;234.73;60.40;;;;;;;;;;4990982;28;20704;-45
2024/02/09 03:23:36;;;;;;;237.88;63.58;;;;;;;;;;5004683;28;20640;-45
2024/02/09 03:26:02;;;;;;;234.80;59.70;;;;;;;;;;5002381;28;20172;-45
2024/02/09 03:28:28;;;;;;;236.85;62.88;;;;;;;;;;5004582;28;20200;-46
2024/02/09 03:30:54;;;;;;;236.33;63.37;;;;;;;;;;4998772;28;20317;-45
2024/02/09 03:33:20;;;;;;;237.07;64.00;;;;;;;;;;4999466;28;20478;-45
2024/02/09 03:35:46;;;;;;;236.43;63.00;;;;;;;;;;4993811;28;20422;-45
2024/02/09 03:38:13;;;;;;;238.60;66.93;;;;;;;;;;5003744;28;20427;-45
2024/02/09 03:40:39;;;;;;;245.57;72.15;;;;;;;;;;5001609;28;20510;-45
2024/02/09 03:43:08;;;;;;;235.50;61.17;;;;;;;;;;4998092;28;20181;-46
2024/02/09 03:45:34;;;;;;;235.48;60.78;;;;;;;;;;5003532;28;20767;-45
2024/02/09 03:48:00;;;;;;;236.30;62.40;;;;;;;;;;4996553;28;20169;-45
2024/02/09 03:50:26;;;;;;;235.45;60.25;;;;;;;;;;4995674;28;20954;-45
2024/02/09 03:52:52;;;;;;;233.60;60.90;;;;;;;;;;5000829;28;20177;-45
2024/02/09 03:55:18;;;;;;;233.03;59.80;;;;;;;;;;5005938;28;20917;-45
2024/02/09 03:57:45;;;;;;;238.90;64.17;;;;;;;;;;4999462;28;20928;-45
2024/02/09 04:00:15;;;;;;;234.30;61.92;;;;;;;;;;4994343;28;20435;-45
2024/02/09 04:02:41;;;;;;;235.23;61.80;;;;;;;;;;4997559;28;20641;-45
2024/02/09 04:05:07;;;;;;;234.05;60.58;;;;;;;;;;4998050;28;20173;-45
2024/02/09 04:07:33;;;;;;;235.30;61.77;;;;;;;;;;5004685;28;20195;-45
2024/02/09 04:10:01;;;;;;;234.77;60.27;;;;;;;;;;5001553;28;20447;-45
2024/02/09 04:12:27;;;;;;;236.40;63.97;;;;;;;;;;5001553;28;20491;-45
2024/02/09 04:14:53;;;;;;;233.07;60.53;;;;;;;;;;4997408;28;20267;-45
2024/02/09 04:17:19;;;;;;;234.77;61.38;;;;;;;;;;4990307;28;20482;-45
2024/02/09 04:19:45;;;;;;;232.73;58.80;;;;;;;;;;4992503;28;20196;-45
2024/02/09 04:22:11;;;;;;;233.63;59.50;;;;;;;;;;4999213;28;20448;-45
2024/02/09 04:24:37;;;;;;;235.77;62.80;;;;;;;;;;5004614;28;20396;-45
2024/02/09 04:27:03;;;;;;;233.47;59.60;;;;;;;;;;4997059;28;20427;-45
2024/02/09 04:29:29;;;;;;;235.90;63.70;;;;;;;;;;4998811;28;20431;-45
2024/02/09 04:31:55;;;;;;;233.67;59.73;;;;;;;;;;4993972;28;20176;-45
2024/02/09 04:34:21;;;;;;;234.57;60.97;;;;;;;;;;5001789;28;20411;-45
2024/02/09 04:36:48;;;;;;;236.93;63.25;;;;;;;;;;5002933;28;20699;-45
2024/02/09 04:39:14;;;;;;;238.70;63.38;;;;;;;;;;4997368;28;20556;-45
2024/02/09 04:41:44;;;;;;;237.57;63.53;;;;;;;;;;5000252;28;20606;-45
2024/02/09 04:44:10;;;;;;;236.60;62.45;;;;;;;;;;4998394;28;20197;-45
2024/02/09 04:46:38;;;;;;;234.73;62.15;;;;;;;;;;4994951;28;20201;-45
2024/02/09 04:49:06;;;;;;;237.07;63.92;;;;;;;;;;4992197;28;20264;-45
2024/02/09 04:51:35;;;;;;;237.30;64.10;;;;;;;;;;4991862;28;20196;-45
2024/02/09 04:54:01;;;;;;;234.43;60.83;;;;;;;;;;5001387;28;20246;-45
2024/02/09 04:56:32;;;;;;;235.18;61.45;;;;;;;;;;4994005;28;20203;-45
2024/02/09 04:58:58;;;;;;;235.98;62.92;;;;;;;;;;4992821;28;20260;-44
2024/02/09 05:01:36;;;;;;;236.95;61.90;;;;;;;;;;4996190;28;20204;-45
2024/02/09 05:04:02;;;;;;;234.60;61.95;;;;;;;;;;4995478;28;20202;-45
2024/02/09 05:06:29;;;;;;;235.32;60.22;;;;;;;;;;5007510;28;20648;-45
2024/02/09 05:08:56;;;;;;;234.18;60.00;;;;;;;;;;4997138;28;20461;-45
2024/02/09 05:11:21;;;;;;;238.30;63.92;;;;;;;;;;4997801;28;20215;-45
2024/02/09 05:13:48;;;;;;;232.97;59.33;;;;;;;;;;4999478;28;20306;-45
2024/02/09 05:16:14;;;;;;;233.73;59.15;;;;;;;;;;4987533;28;20452;-45
2024/02/09 05:18:40;;;;;;;235.18;60.53;;;;;;;;;;5001955;28;20544;-44
2024/02/09 05:21:06;;;;;;;234.60;60.67;;;;;;;;;;4996378;28;20197;-45
2024/02/09 05:23:33;;;;;;;235.37;62.40;;;;;;;;;;5002890;28;20438;-45
2024/02/09 05:25:59;;;;;;;234.65;61.13;;;;;;;;;;4996033;28;20435;-45
2024/02/09 05:28:25;;;;;;;234.07;59.77;;;;;;;;;;4995650;28;20227;-47
2024/02/09 05:30:51;;;;;;;235.30;61.10;;;;;;;;;;4989540;28;20970;-47
2024/02/09 05:33:17;;;;;;;233.87;60.20;;;;;;;;;;5000397;28;20219;-47
2024/02/09 05:35:43;;;;;;;235.90;62.37;;;;;;;;;;4999249;28;20419;-47
2024/02/09 05:38:09;;;;;;;234.55;62.72;;;;;;;;;;4994108;28;20428;-47
2024/02/09 05:40:35;;;;;;;238.15;66.60;;;;;;;;;;4998117;28;20205;-48
2024/02/09 05:43:01;;;;;;;232.67;60.67;;;;;;;;;;4996255;28;20181;-47
2024/02/09 05:45:28;;;;;;;234.53;60.30;;;;;;;;;;4992144;28;20455;-47
2024/02/09 05:47:54;;;;;;;236.00;61.65;;;;;;;;;;4998557;28;20903;-47
2024/02/09 05:50:21;;;;;;;237.02;63.05;;;;;;;;;;5001962;28;20559;-47
2024/02/09 05:52:50;;;;;;;233.77;59.95;;;;;;;;;;4996062;28;20265;-46
2024/02/09 05:55:17;;;;;;;234.93;62.10;;;;;;;;;;4990608;28;20577;-47
2024/02/09 05:57:43;;;;;;;233.95;61.42;;;;;;;;;;4993817;28;20174;-47
2024/02/09 06:00:14;;;;;;;235.10;60.08;;;;;;;;;;4995816;28;20233;-47
2024/02/09 06:02:41;;;;;;;234.20;61.95;;;;;;;;;;5003146;28;20192;-47
2024/02/09 06:05:07;;;;;;;233.95;59.60;;;;;;;;;;4996874;28;20191;-47
2024/02/09 06:07:34;;;;;;;234.17;60.20;;;;;;;;;;4998423;28;20173;-47
2024/02/09 06:12:28;;;;;;;234.73;61.78;;;;;;;;;;5022530;28;20214;-47
2024/02/09 06:14:59;;;;;;;232.80;59.40;;;;;;;;;;5026277;28;20179;-47
2024/02/09 06:17:25;;;;;;;234.10;60.92;;;;;;;;;;5010033;28;20477;-47
2024/02/09 06:19:51;;;;;;;235.18;60.47;;;;;;;;;;5017934;28;20163;-47
2024/02/09 06:22:17;;;;;;;236.82;62.40;;;;;;;;;;5023533;28;20200;-47
2024/02/09 06:24:43;;;;;;;235.68;61.35;;;;;;;;;;5019064;28;20200;-47
2024/02/09 06:27:11;;;;;;;232.63;59.95;;;;;;;;;;5015250;28;20286;-47
2024/02/09 06:29:38;;;;;;;234.32;60.53;;;;;;;;;;5021250;28;20465;-47
2024/02/09 06:32:04;;;;;;;234.68;60.50;;;;;;;;;;5024355;28;20257;-47
2024/02/09 06:34:30;;;;;;;235.23;60.75;;;;;;;;;;5016583;28;20186;-47
2024/02/09 06:36:56;;;;;;;233.80;59.27;;;;;;;;;;5021223;28;20197;-47
2024/02/09 06:39:23;;;;;;;235.82;60.38;;;;;;;;;;5019710;28;20478;-47
2024/02/09 06:41:49;;;;;;;234.95;59.80;;;;;;;;;;5016016;28;20575;-47
2024/02/09 06:44:18;;;;;;;234.65;60.45;;;;;;;;;;5022397;28;20648;-47
2024/02/09 06:46:44;;;;;;;234.73;60.75;;;;;;;;;;5022756;28;20168;-47
2024/02/09 06:49:10;;;;;;;234.85;61.17;;;;;;;;;;5021319;28;20650;-47
2024/02/09 06:51:37;;;;;;;233.90;59.53;;;;;;;;;;5013184;28;20249;-47
2024/02/09 06:54:03;;;;;;;236.15;61.05;;;;;;;;;;5010900;28;20417;-47
2024/02/09 06:56:29;;;;;;;235.48;60.72;;;;;;;;;;5023702;28;20172;-47
2024/02/09 06:58:58;;;;;;;235.45;60.20;;;;;;;;;;5022617;28;20543;-47
2024/02/09 07:01:24;;;;;;;234.80;59.47;;;;;;;;;;5022771;28;20188;-47
2024/02/09 07:03:51;;;;;;;236.73;62.15;;;;;;;;;;5018575;28;20647;-47
2024/02/09 07:06:18;;;;;;;235.38;60.58;;;;;;;;;;5017905;28;20548;-47
2024/02/09 07:08:51;;;;;;;236.95;62.35;;;;;;;;;;5011695;28;20168;-48
2024/02/09 07:11:17;;;;;;;235.50;60.50;;;;;;;;;;5021659;28;20217;-47
2024/02/09 07:13:43;;;;;;;236.75;61.63;;;;;;;;;;5021305;28;20378;-47
2024/02/09 07:16:09;;;;;;;235.63;62.77;;;;;;;;;;5016204;28;20640;-47
2024/02/09 07:18:39;;;;;;;237.25;63.13;;;;;;;;;;5021656;28;20460;-47
2024/02/09 07:21:05;;;;;;;236.90;63.00;;;;;;;;;;5017358;28;20196;-47
2024/02/09 07:23:32;;;;;;;235.82;61.47;;;;;;;;;;5014517;28;20259;-48
2024/02/09 07:25:58;;;;;;;236.32;61.85;;;;;;;;;;5020465;28;20176;-47
2024/02/09 07:28:24;;;;;;;237.15;61.67;;;;;;;;;;5024244;28;20226;-47
2024/02/09 07:30:50;;;;;;;238.70;64.57;;;;;;;;;;5017857;28;20338;-47
2024/02/09 07:33:16;;;;;;;235.80;60.67;;;;;;;;;;5012936;28;20267;-47
2024/02/09 07:35:46;;;;;;;240.23;64.10;;;;;;;;;;5015807;28;20552;-47
2024/02/09 07:38:12;;;;;;;238.75;64.07;;;;;;;;;;5018453;28;20195;-47
2024/02/09 07:40:38;;;;;;;243.90;69.60;;;;;;;;;;5023933;28;20662;-46
2024/02/09 07:43:04;;;;;;;237.55;63.20;;;;;;;;;;5008802;28;20176;-47
2024/02/09 07:45:30;;;;;;;239.20;63.25;;;;;;;;;;5011569;28;20182;-46
2024/02/09 07:47:59;;;;;;;237.63;62.28;;;;;;;;;;5016152;28;20263;-46
2024/02/09 07:50:25;;;;;;;242.10;64.82;;;;;;;;;;5023071;28;20197;-46
2024/02/09 07:52:52;;;;;;;236.40;59.85;;;;;;;;;;5023941;28;20183;-46
2024/02/09 07:55:21;;;;;;;238.90;60.72;;;;;;;;;;5021080;28;20176;-46
2024/02/09 07:57:47;;;;;;;236.70;59.78;;;;;;;;;;5020221;28;20597;-46
2024/02/09 08:00:17;;;;;;;236.98;60.88;;;;;;;;;;5017771;28;20287;-46
2024/02/09 08:02:43;;;;;;;236.10;61.05;;;;;;;;;;5017020;28;20225;-46
2024/02/09 08:05:17;;;;;;;236.63;60.28;;;;;;;;;;5008401;28;20185;-46
2024/02/09 08:07:43;;;;;;;234.23;58.10;;;;;;;;;;5022603;28;20175;-46
2024/02/09 08:10:10;;;;;;;233.35;60.15;;;;;;;;;;5017462;28;20263;-46
2024/02/09 08:12:38;;;;;;;235.70;58.97;;;;;;;;;;5021954;28;20697;-46
2024/02/09 08:15:05;;;;;;;234.95;58.22;;;;;;;;;;5017090;28;20172;-46
2024/02/09 08:17:31;;;;;;;233.35;57.63;;;;;;;;;;5012601;28;20184;-46
2024/02/09 08:19:57;;;;;;;235.90;60.87;;;;;;;;;;5011571;28;20228;-45
2024/02/09 08:22:25;;;;;;;238.30;63.17;;;;;;;;;;5018998;28;20550;-46
2024/02/09 08:24:51;;;;;;;235.60;60.15;;;;;;;;;;5020562;28;20440;-46
2024/02/09 08:27:17;;;;;;;235.47;60.47;;;;;;;;;;5014550;28;20177;-46
2024/02/09 08:29:43;;;;;;;234.38;59.15;;;;;;;;;;5023959;28;20905;-46
2024/02/09 08:32:09;;;;;;;237.35;62.33;;;;;;;;;;5023719;28;20235;-46
2024/02/09 08:34:35;;;;;;;235.85;60.28;;;;;;;;;;5022370;28;20553;-46
2024/02/09 08:37:02;;;;;;;234.60;60.63;;;;;;;;;;5019512;28;20168;-46
2024/02/09 08:39:28;;;;;;;235.75;60.47;;;;;;;;;;5023000;28;20480;-46
2024/02/09 08:41:54;;;;;;;237.40;62.43;;;;;;;;;;5015772;28;20702;-47
2024/02/09 08:44:20;;;;;;;232.32;58.75;;;;;;;;;;5016659;28;20413;-46
2024/02/09 08:46:47;;;;;;;236.57;60.80;;;;;;;;;;5010674;28;20263;-46
2024/02/09 08:49:14;;;;;;;234.18;59.53;;;;;;;;;;5021630;28;20509;-46
2024/02/09 08:51:41;;;;;;;234.50;59.70;;;;;;;;;;5018791;28;20271;-47
2024/02/09 08:54:07;;;;;;;238.13;63.35;;;;;;;;;;5015019;28;20216;-47
2024/02/09 08:56:33;;;;;;;238.27;62.78;;;;;;;;;;5020683;28;20554;-47
2024/02/09 08:58:59;;;;;;;236.02;61.60;;;;;;;;;;5015833;28;20168;-47
2024/02/09 09:01:25;;;;;;;236.73;61.25;;;;;;;;;;5012363;28;20227;-46
2024/02/09 09:03:54;;;;;;;236.37;60.97;;;;;;;;;;5019192;28;20231;-47
2024/02/09 09:06:20;;;;;;;235.73;61.55;;;;;;;;;;5022907;28;20922;-46
2024/02/09 09:08:46;;;;;;;236.80;61.57;;;;;;;;;;5017089;28;20179;-46
2024/02/09 09:11:13;;;;;;;235.77;59.50;;;;;;;;;;5010771;28;20480;-46
2024/02/09 09:13:39;;;;;;;234.90;58.85;;;;;;;;;;5018216;28;20414;-46
2024/02/09 09:16:05;;;;;;;237.15;61.08;;;;;;;;;;5015597;28;20219;-47
2024/02/09 09:18:31;;;;;;;238.68;62.80;;;;;;;;;;5003254;28;20188;-46
2024/02/09 09:20:57;;;;;;;235.90;61.03;;;;;;;;;;5000480;28;20251;-46
2024/02/09 09:23:23;;;;;;;241.23;64.87;;;;;;;;;;5002606;28;20185;-46
2024/02/09 09:25:49;;;;;;;237.67;61.03;;;;;;;;;;5011837;28;20963;-47
2024/02/09 09:28:17;;;;;;;238.90;63.15;;;;;;;;;;5006956;28;20928;-47
2024/02/09 09:30:44;;;;;;;242.02;64.60;;;;;;;;;;5023670;28;20188;-47
2024/02/09 09:33:10;;;;;;;241.48;61.67;;;;;;;;;;5017743;28;20187;-47
2024/02/09 09:35:36;;;;;;;239.45;63.28;;;;;;;;;;5015020;28;20255;-47
2024/02/09 09:38:04;;;;;;;252.18;72.22;;;;;;;;;;5014749;28;20188;-48
2024/02/09 09:40:35;;;;;;;236.45;61.85;;;;;;;;;;4993568;28;20199;-47
2024/02/09 09:43:01;;;;;;;240.85;63.63;;;;;;;;;;4991305;28;20169;-46
2024/02/09 09:48:06;;;;;;;247.80;74.38;;;;;;;;;;5081926;23;20233;-46
2024/02/09 09:50:33;;;;;;;242.18;66.68;;;;;;;;;;5013004;28;20744;-47
2024/02/09 09:53:02;;;;;;;234.85;61.95;;;;;;;;;;5016355;28;20206;-45
2024/02/09 09:55:30;;;;;;;239.85;67.60;;;;;;;;;;5012716;28;20171;-45
2024/02/09 09:57:56;;;;;;;240.23;66.57;;;;;;;;;;5000657;28;20198;-45
2024/02/09 10:00:23;;;;;;;240.52;67.07;;;;;;;;;;4995197;28;20187;-46
2024/02/09 10:05:27;;;;;;;245.35;72.55;;;;;;;;;;5614851;23;20301;-46
2024/02/09 10:07:53;;;;;;;241.75;66.32;;;;;;;;;;5011884;28;20218;-46
2024/02/09 10:10:20;;;;;;;240.87;66.40;;;;;;;;;;5014734;28;20603;-46
2024/02/09 10:12:46;;;;;;;238.48;63.65;;;;;;;;;;5010745;28;20819;-46
2024/02/09 10:15:12;;;;;;;240.30;65.60;;;;;;;;;;5012691;28;20188;-46
2024/02/09 10:17:41;;;;;;;241.67;67.27;;;;;;;;;;5009549;28;20960;-46
2024/02/09 10:20:11;;;;;;;239.48;64.35;;;;;;;;;;5006969;28;20423;-46
2024/02/09 10:22:37;;;;;;;240.15;66.40;;;;;;;;;;5014285;28;20200;-45
2024/02/09 10:25:04;;;;;;;243.15;67.55;;;;;;;;;;5010756;28;20194;-46
2024/02/09 10:27:30;;;;;;;241.65;64.90;;;;;;;;;;5010248;28;20190;-45
2024/02/09 10:29:58;;;;;;;241.65;67.00;;;;;;;;;;5008553;28;20170;-46
2024/02/09 10:32:25;;;;;;;241.10;66.72;;;;;;;;;;5010254;28;20646;-46
2024/02/09 10:34:52;;;;;;;244.15;69.10;;;;;;;;;;5009893;28;20289;-46
2024/02/09 10:37:19;;;;;;;243.43;68.47;;;;;;;;;;5013862;28;20195;-47
2024/02/09 10:39:45;;;;;;;242.80;67.57;;;;;;;;;;5013611;28;20319;-46
2024/02/09 10:42:14;;;;;;;244.40;70.13;;;;;;;;;;5013964;28;20659;-47
2024/02/09 10:44:42;;;;;;;244.90;70.30;;;;;;;;;;5012936;28;20419;-45
2024/02/09 10:47:09;;;;;;;244.38;69.65;;;;;;;;;;5013814;28;20176;-46
2024/02/09 10:49:39;;;;;;;243.40;72.45;;;;;;;;;;5013730;28;20414;-45
2024/02/09 10:52:07;;;;;;;244.13;68.70;;;;;;;;;;5014203;28;20216;-45
2024/02/09 10:54:45;;;;;;;246.70;72.78;;;;;;;;;;5013126;28;20176;-45
2024/02/09 10:57:12;;;;;;;244.50;69.07;;;;;;;;;;5013121;28;20168;-45
2024/02/09 10:59:40;;;;;;;242.50;67.35;;;;;;;;;;5013835;28;20233;-45
2024/02/09 11:02:06;;;;;;;241.60;65.10;;;;;;;;;;5013971;28;20210;-45
2024/02/09 11:04:33;;;;;;;243.63;66.65;;;;;;;;;;5012767;28;20179;-45
2024/02/09 11:06:59;;;;;;;238.90;64.57;;;;;;;;;;5013094;28;20227;-45
2024/02/09 11:09:25;;;;;;;237.65;60.33;;;;;;;;;;5013587;28;20273;-45
2024/02/09 11:11:51;;;;;;;241.07;64.83;;;;;;;;;;5012429;28;20652;-45
2024/02/09 11:14:17;;;;;;;244.90;68.83;;;;;;;;;;5011395;28;20447;-45
2024/02/09 11:16:46;;;;;;;239.15;63.70;;;;;;;;;;5013537;28;20959;-45
2024/02/09 11:19:16;;;;;;;240.55;65.22;;;;;;;;;;5012879;28;20184;-45
2024/02/09 11:21:46;;;;;;;241.65;67.28;;;;;;;;;;5013359;28;20558;-45
2024/02/09 11:24:15;;;;;;;239.30;64.20;;;;;;;;;;5012905;28;20628;-45
2024/02/09 11:26:45;;;;;;;243.48;69.25;;;;;;;;;;5013149;28;20173;-45
2024/02/09 11:29:11;;;;;;;241.02;67.30;;;;;;;;;;5012946;28;20705;-45
2024/02/09 11:31:38;;;;;;;239.70;65.47;;;;;;;;;;5012555;28;20179;-45
2024/02/09 11:34:04;;;;;;;241.45;67.15;;;;;;;;;;5010837;28;20416;-45
2024/02/09 11:36:30;;;;;;;243.73;69.05;;;;;;;;;;5012323;28;20199;-45
2024/02/09 11:38:57;;;;;;;244.83;68.30;;;;;;;;;;5013033;28;20172;-45
2024/02/09 11:41:25;;;;;;;245.05;68.75;;;;;;;;;;5012890;28;20514;-45
2024/02/09 11:43:51;;;;;;;244.35;72.10;;;;;;;;;;5012862;28;20187;-45
2024/02/09 11:46:19;;;;;;;244.98;72.15;;;;;;;;;;5011607;28;20198;-45
2024/02/09 11:48:46;;;;;;;246.15;71.32;;;;;;;;;;5010671;28;20160;-45
2024/02/09 11:51:20;;;;;;;244.43;70.85;;;;;;;;;;5008956;28;20284;-45
2024/02/09 11:53:49;;;;;;;246.85;73.63;;;;;;;;;;5012896;28;20519;-45
2024/02/09 11:56:15;;;;;;;248.15;75.35;;;;;;;;;;5011748;28;20225;-45
2024/02/09 11:58:41;;;;;;;253.45;79.93;;;;;;;;;;5012702;28;20164;-45
2024/02/09 12:01:08;;;;;;;252.40;80.60;;;;;;;;;;5012498;28;20200;-45
2024/02/09 12:03:34;;;;;;;250.15;79.10;;;;;;;;;;5010628;28;20180;-45
2024/02/09 12:06:02;;;;;;;254.50;85.05;;;;;;;;;;5011788;28;20243;-45
2024/02/09 12:08:30;;;;;;;250.15;79.80;;;;;;;;;;5011740;28;20183;-45
2024/02/09 12:10:56;;;;;;;249.00;77.22;;;;;;;;;;5012495;28;20172;-44
2024/02/09 12:13:23;;;;;;;251.73;79.47;;;;;;;;;;5011993;28;20271;-45
2024/02/09 12:15:49;;;;;;;249.98;78.68;;;;;;;;;;5011701;28;20674;-45
2024/02/09 12:18:16;;;;;;;249.90;77.88;;;;;;;;;;5012405;28;20172;-45
2024/02/09 12:20:43;;;;;;;248.18;76.07;;;;;;;;;;5012374;28;20210;-44
2024/02/09 12:23:09;;;;;;;254.13;81.97;;;;;;;;;;5007920;28;20175;-44
2024/02/09 12:25:37;;;;;;;252.25;81.95;;;;;;;;;;5010071;28;20279;-45
2024/02/09 12:28:04;;;;;;;251.45;79.25;;;;;;;;;;5011648;28;20172;-44
2024/02/09 12:30:30;;;;;;;250.80;79.40;;;;;;;;;;5011472;28;20191;-44
2024/02/09 12:32:59;;;;;;;248.77;77.33;;;;;;;;;;5009617;28;20190;-45
2024/02/09 12:35:29;;;;;;;252.32;80.00;;;;;;;;;;5010726;28;20427;-45
2024/02/09 12:37:59;;;;;;;248.98;77.07;;;;;;;;;;5011589;28;20230;-44
2024/02/09 12:40:25;;;;;;;250.02;78.93;;;;;;;;;;5004616;28;20269;-44
2024/02/09 12:42:53;;;;;;;247.10;76.63;;;;;;;;;;5011355;28;20211;-45
2024/02/09 12:45:31;;;;;;;249.98;78.78;;;;;;;;;;5008730;28;20193;-45
2024/02/09 12:48:00;;;;;;;248.27;75.35;;;;;;;;;;5011114;28;20171;-45
2024/02/09 12:50:26;;;;;;;248.80;77.32;;;;;;;;;;5011137;28;20195;-44
2024/02/09 12:52:52;;;;;;;250.30;80.53;;;;;;;;;;5010974;28;20224;-45
2024/02/09 12:55:19;;;;;;;248.50;75.50;;;;;;;;;;5010420;28;20254;-45
2024/02/09 12:57:46;;;;;;;249.63;75.80;;;;;;;;;;5009711;28;20179;-45
2024/02/09 13:00:13;;;;;;;251.15;78.90;;;;;;;;;;5010340;28;20172;-44
2024/02/09 13:02:39;;;;;;;247.70;76.03;;;;;;;;;;5011353;28;20257;-44
2024/02/09 13:05:05;;;;;;;246.18;74.93;;;;;;;;;;5010073;28;20738;-44
2024/02/09 13:07:34;;;;;;;247.63;76.70;;;;;;;;;;5010659;28;20682;-45
2024/02/09 13:10:01;;;;;;;245.48;74.03;;;;;;;;;;5010989;28;20197;-46
2024/02/09 13:12:27;;;;;;;245.43;73.35;;;;;;;;;;5009504;28;20689;-45
2024/02/09 13:14:53;;;;;;;246.60;73.55;;;;;;;;;;5010256;28;20209;-45
2024/02/09 13:17:22;;;;;;;246.20;74.35;;;;;;;;;;5010479;28;20177;-44
2024/02/09 13:19:48;;;;;;;245.25;74.20;;;;;;;;;;5011466;28;20738;-44
2024/02/09 13:22:15;;;;;;;244.80;71.77;;;;;;;;;;5014639;28;20208;-44
2024/02/09 13:24:42;;;;;;;247.35;75.22;;;;;;;;;;5014244;28;20981;-44
2024/02/09 13:27:14;;;;;;;244.55;73.57;;;;;;;;;;5014595;28;20545;-44
2024/02/09 13:29:42;;;;;;;250.73;79.43;;;;;;;;;;5014416;28;20230;-43
2024/02/09 13:32:12;;;;;;;245.15;75.53;;;;;;;;;;5014848;28;20213;-43
2024/02/09 13:34:38;;;;;;;250.82;80.30;;;;;;;;;;5014703;28;20614;-44
2024/02/09 13:37:04;;;;;;;247.27;76.50;;;;;;;;;;5015059;28;20247;-46
2024/02/09 13:39:30;;;;;;;244.70;72.30;;;;;;;;;;5015169;28;20413;-44
2024/02/09 13:41:56;;;;;;;246.47;74.47;;;;;;;;;;5015002;28;20204;-47
2024/02/09 13:44:22;;;;;;;254.20;82.78;;;;;;;;;;5011855;28;20434;-43
2024/02/09 13:46:48;;;;;;;247.80;79.63;;;;;;;;;;5014819;28;20180;-43
2024/02/09 13:49:14;;;;;;;247.63;78.93;;;;;;;;;;5015091;28;20534;-43
2024/02/09 13:51:40;;;;;;;244.53;72.57;;;;;;;;;;5014696;28;20823;-44
2024/02/09 13:54:06;;;;;;;245.02;75.40;;;;;;;;;;5014882;28;20426;-43
2024/02/09 13:56:33;;;;;;;244.88;74.68;;;;;;;;;;5014025;28;20195;-43
2024/02/09 13:59:00;;;;;;;248.70;79.45;;;;;;;;;;5015124;28;20169;-43
2024/02/09 14:01:26;;;;;;;246.65;75.80;;;;;;;;;;5014794;28;20334;-43
2024/02/09 14:03:54;;;;;;;248.33;77.90;;;;;;;;;;5014963;28;20260;-44
2024/02/09 14:06:20;;;;;;;243.30;70.72;;;;;;;;;;5014148;28;20419;-44
2024/02/09 14:08:46;;;;;;;247.53;75.23;;;;;;;;;;5014671;28;20567;-44
2024/02/09 14:11:13;;;;;;;248.50;76.90;;;;;;;;;;5014765;28;20565;-46
2024/02/09 14:13:39;;;;;;;248.90;78.80;;;;;;;;;;5014911;28;20654;-44
2024/02/09 14:16:06;;;;;;;246.03;75.93;;;;;;;;;;5014242;28;20315;-43
2024/02/09 14:18:33;;;;;;;246.55;77.30;;;;;;;;;;5014995;28;20398;-44
2024/02/09 14:20:59;;;;;;;247.60;76.43;;;;;;;;;;5015110;28;20193;-45
2024/02/09 14:23:27;;;;;;;247.57;76.57;;;;;;;;;;5014860;28;20179;-45
2024/02/09 14:25:56;;;;;;;246.90;75.28;;;;;;;;;;5013811;28;20676;-46
2024/02/09 14:28:23;;;;;;;250.05;83.03;;;;;;;;;;5014433;28;20173;-44
2024/02/09 14:30:49;;;;;;;246.93;79.03;;;;;;;;;;5014674;28;20559;-45
2024/02/09 14:33:15;;;;;;;245.48;74.90;;;;;;;;;;5013895;28;20171;-43
2024/02/09 14:35:43;;;;;;;248.48;74.57;;;;;;;;;;5012516;28;20258;-44
2024/02/09 14:38:09;;;;;;;249.27;75.00;;;;;;;;;;5011327;28;20179;-44
2024/02/09 14:40:36;;;;;;;243.20;71.77;;;;;;;;;;5014299;28;20182;-44
2024/02/09 14:43:02;;;;;;;244.02;72.30;;;;;;;;;;5013670;28;20473;-43
2024/02/09 14:45:28;;;;;;;248.75;78.85;;;;;;;;;;5013642;28;20226;-43
2024/02/09 14:47:54;;;;;;;247.32;77.28;;;;;;;;;;5014266;28;20195;-44
2024/02/09 14:50:20;;;;;;;247.70;76.85;;;;;;;;;;5014319;28;20270;-44
2024/02/09 14:52:46;;;;;;;246.97;77.70;;;;;;;;;;5014282;28;20219;-44
2024/02/09 14:55:13;;;;;;;248.17;78.63;;;;;;;;;;5013733;28;20430;-44
2024/02/09 14:57:39;;;;;;;249.55;78.32;;;;;;;;;;5012612;28;20428;-45
2024/02/09 15:00:06;;;;;;;250.50;80.38;;;;;;;;;;5012179;28;20168;-44
2024/02/09 15:02:32;;;;;;;247.48;75.55;;;;;;;;;;5013081;28;20247;-43
2024/02/09 15:04:58;;;;;;;248.20;79.65;;;;;;;;;;5012086;28;20208;-43
2024/02/09 15:07:27;;;;;;;246.57;77.67;;;;;;;;;;5012705;28;20187;-43
2024/02/09 15:09:53;;;;;;;249.27;79.40;;;;;;;;;;5011666;28;20436;-44
2024/02/09 15:12:20;;;;;;;246.57;77.93;;;;;;;;;;5013442;28;20647;-46
2024/02/09 15:14:49;;;;;;;250.35;82.05;;;;;;;;;;5013389;28;20839;-43
2024/02/09 15:17:20;;;;;;;245.27;77.95;;;;;;;;;;5014032;28;20226;-43
2024/02/09 15:19:46;;;;;;;246.77;77.75;;;;;;;;;;5012454;28;20176;-44
2024/02/09 15:22:12;;;;;;;245.43;73.00;;;;;;;;;;5013527;28;20248;-44
2024/02/09 15:24:38;;;;;;;245.53;71.73;;;;;;;;;;5013035;28;20584;-44
2024/02/09 15:27:04;;;;;;;246.53;76.27;;;;;;;;;;5013766;28;20775;-44
2024/02/09 15:29:31;;;;;;;248.13;79.70;;;;;;;;;;5013899;28;20483;-45
2024/02/09 15:31:58;;;;;;;245.70;74.03;;;;;;;;;;5012189;28;20182;-45
2024/02/09 15:34:24;;;;;;;257.75;85.00;;;;;;;;;;5012492;28;20171;-45
2024/02/09 15:36:50;;;;;;;245.93;73.78;;;;;;;;;;5013539;28;20199;-44
2024/02/09 15:39:16;;;;;;;249.57;78.53;;;;;;;;;;5012859;28;20206;-44
2024/02/09 15:41:45;;;;;;;244.65;71.70;;;;;;;;;;5013011;28;20689;-44
2024/02/09 15:44:11;;;;;;;242.35;71.07;;;;;;;;;;5011290;28;20228;-44
2024/02/09 15:46:38;;;;;;;248.52;77.38;;;;;;;;;;5013098;28;20601;-44
2024/02/09 15:49:04;;;;;;;246.10;74.28;;;;;;;;;;5012949;28;20224;-45
2024/02/09 15:51:30;;;;;;;245.05;73.90;;;;;;;;;;5013100;28;20175;-43
2024/02/09 15:53:57;;;;;;;245.80;74.13;;;;;;;;;;5012705;28;20177;-45
2024/02/09 15:56:25;;;;;;;243.95;72.40;;;;;;;;;;5012232;28;20210;-43
2024/02/09 15:58:54;;;;;;;246.13;75.00;;;;;;;;;;5012787;28;20599;-44
2024/02/09 16:01:20;;;;;;;241.75;69.25;;;;;;;;;;5012706;28;20238;-45